sensor_id;sensor_type;location;lat;lon;timestamp;P1;durP1;ratioP1;P2;durP2;ratioP2
19191;SDS011;9728;48.194;16.346;2022-10-31T00:03:35;4.45;;;2.80;;
19191;SDS011;9728;48.194;16.346;2022-10-31T00:08:38;3.67;;;2.35;;
19191;SDS011;9728;48.194;16.346;2022-10-31T00:13:44;4.00;;;2.28;;
19191;SDS011;9728;48.194;16.346;2022-10-31T00:18:47;2.33;;;1.98;;
19191;SDS011;9728;48.194;16.346;2022-10-31T00:23:52;3.55;;;2.33;;
19191;SDS011;9728;48.194;16.346;2022-10-31T00:28:57;2.30;;;2.00;;
19191;SDS011;9728;48.194;16.346;2022-10-31T00:34:01;3.00;;;2.20;;
19191;SDS011;9728;48.194;16.346;2022-10-31T00:39:05;2.58;;;2.10;;
19191;SDS011;9728;48.194;16.346;2022-10-31T00:44:09;2.75;;;2.08;;
19191;SDS011;9728;48.194;16.346;2022-10-31T00:49:13;2.97;;;1.98;;
19191;SDS011;9728;48.194;16.346;2022-10-31T00:54:16;3.20;;;2.28;;
19191;SDS011;9728;48.194;16.346;2022-10-31T00:59:21;2.72;;;2.30;;
19191;SDS011;9728;48.194;16.346;2022-10-31T01:04:25;2.72;;;2.05;;
19191;SDS011;9728;48.194;16.346;2022-10-31T01:09:30;4.07;;;2.30;;
19191;SDS011;9728;48.194;16.346;2022-10-31T01:14:35;2.60;;;1.90;;
19191;SDS011;9728;48.194;16.346;2022-10-31T01:19:38;4.22;;;2.50;;
19191;SDS011;9728;48.194;16.346;2022-10-31T01:24:41;3.95;;;2.53;;
19191;SDS011;9728;48.194;16.346;2022-10-31T01:29:46;3.05;;;2.15;;
19191;SDS011;9728;48.194;16.346;2022-10-31T01:34:49;3.55;;;2.45;;
19191;SDS011;9728;48.194;16.346;2022-10-31T01:39:53;3.20;;;1.92;;
19191;SDS011;9728;48.194;16.346;2022-10-31T01:44:59;3.83;;;2.10;;
19191;SDS011;9728;48.194;16.346;2022-10-31T01:50:04;2.88;;;1.90;;
19191;SDS011;9728;48.194;16.346;2022-10-31T01:55:15;2.60;;;1.73;;
19191;SDS011;9728;48.194;16.346;2022-10-31T02:00:29;2.60;;;1.98;;
19191;SDS011;9728;48.194;16.346;2022-10-31T02:05:33;3.45;;;2.15;;
19191;SDS011;9728;48.194;16.346;2022-10-31T02:10:37;2.58;;;2.10;;
19191;SDS011;9728;48.194;16.346;2022-10-31T02:15:43;3.00;;;2.13;;
19191;SDS011;9728;48.194;16.346;2022-10-31T02:20:52;4.20;;;2.70;;
19191;SDS011;9728;48.194;16.346;2022-10-31T02:26:14;2.38;;;1.85;;
19191;SDS011;9728;48.194;16.346;2022-10-31T02:31:46;2.72;;;2.03;;
19191;SDS011;9728;48.194;16.346;2022-10-31T02:36:58;2.20;;;1.70;;
19191;SDS011;9728;48.194;16.346;2022-10-31T02:42:12;2.78;;;1.83;;
19191;SDS011;9728;48.194;16.346;2022-10-31T02:47:22;2.83;;;1.98;;
19191;SDS011;9728;48.194;16.346;2022-10-31T02:52:30;3.17;;;2.00;;
19191;SDS011;9728;48.194;16.346;2022-10-31T02:57:36;2.85;;;1.80;;
19191;SDS011;9728;48.194;16.346;2022-10-31T03:02:57;1.83;;;1.45;;
19191;SDS011;9728;48.194;16.346;2022-10-31T03:08:09;2.88;;;1.75;;
19191;SDS011;9728;48.194;16.346;2022-10-31T03:13:21;2.35;;;1.90;;
19191;SDS011;9728;48.194;16.346;2022-10-31T03:18:35;2.05;;;1.67;;
19191;SDS011;9728;48.194;16.346;2022-10-31T03:23:43;2.13;;;1.67;;
19191;SDS011;9728;48.194;16.346;2022-10-31T03:28:54;1.50;;;1.27;;
19191;SDS011;9728;48.194;16.346;2022-10-31T03:34:01;1.92;;;1.20;;
19191;SDS011;9728;48.194;16.346;2022-10-31T03:39:07;1.50;;;1.30;;
19191;SDS011;9728;48.194;16.346;2022-10-31T03:44:15;2.55;;;1.70;;
19191;SDS011;9728;48.194;16.346;2022-10-31T03:49:31;2.47;;;1.50;;
19191;SDS011;9728;48.194;16.346;2022-10-31T03:54:36;1.35;;;1.25;;
19191;SDS011;9728;48.194;16.346;2022-10-31T03:59:46;1.73;;;1.48;;
19191;SDS011;9728;48.194;16.346;2022-10-31T04:04:55;1.88;;;1.30;;
19191;SDS011;9728;48.194;16.346;2022-10-31T04:10:00;2.22;;;1.52;;
19191;SDS011;9728;48.194;16.346;2022-10-31T04:15:07;1.48;;;1.23;;
19191;SDS011;9728;48.194;16.346;2022-10-31T04:20:16;1.58;;;1.45;;
19191;SDS011;9728;48.194;16.346;2022-10-31T04:25:22;1.20;;;1.10;;
19191;SDS011;9728;48.194;16.346;2022-10-31T04:30:27;1.90;;;1.40;;
19191;SDS011;9728;48.194;16.346;2022-10-31T04:35:32;1.48;;;1.38;;
19191;SDS011;9728;48.194;16.346;2022-10-31T04:40:35;1.70;;;1.20;;
19191;SDS011;9728;48.194;16.346;2022-10-31T04:45:57;1.77;;;1.30;;
19191;SDS011;9728;48.194;16.346;2022-10-31T04:51:03;1.40;;;1.30;;
19191;SDS011;9728;48.194;16.346;2022-10-31T04:56:07;1.83;;;1.20;;
19191;SDS011;9728;48.194;16.346;2022-10-31T05:01:15;1.02;;;0.93;;
19191;SDS011;9728;48.194;16.346;2022-10-31T05:06:21;1.75;;;1.33;;
19191;SDS011;9728;48.194;16.346;2022-10-31T05:11:25;1.60;;;1.30;;
19191;SDS011;9728;48.194;16.346;2022-10-31T05:16:34;2.47;;;1.60;;
19191;SDS011;9728;48.194;16.346;2022-10-31T05:21:57;2.35;;;1.70;;
19191;SDS011;9728;48.194;16.346;2022-10-31T05:27:00;1.73;;;1.48;;
19191;SDS011;9728;48.194;16.346;2022-10-31T05:32:04;2.90;;;1.75;;
19191;SDS011;9728;48.194;16.346;2022-10-31T05:37:38;1.55;;;1.40;;
19191;SDS011;9728;48.194;16.346;2022-10-31T05:42:41;1.58;;;1.40;;
19191;SDS011;9728;48.194;16.346;2022-10-31T05:47:50;1.85;;;1.40;;
19191;SDS011;9728;48.194;16.346;2022-10-31T05:53:14;2.10;;;1.55;;
19191;SDS011;9728;48.194;16.346;2022-10-31T05:58:19;1.70;;;1.30;;
19191;SDS011;9728;48.194;16.346;2022-10-31T06:03:34;1.50;;;1.40;;
19191;SDS011;9728;48.194;16.346;2022-10-31T06:08:41;1.98;;;1.55;;
19191;SDS011;9728;48.194;16.346;2022-10-31T06:13:49;1.38;;;1.27;;
19191;SDS011;9728;48.194;16.346;2022-10-31T06:18:59;1.30;;;1.13;;
19191;SDS011;9728;48.194;16.346;2022-10-31T06:24:04;2.22;;;1.48;;
19191;SDS011;9728;48.194;16.346;2022-10-31T06:29:43;1.48;;;1.38;;
19191;SDS011;9728;48.194;16.346;2022-10-31T06:34:56;2.85;;;1.50;;
19191;SDS011;9728;48.194;16.346;2022-10-31T06:40:01;2.85;;;1.50;;
19191;SDS011;9728;48.194;16.346;2022-10-31T06:45:11;1.60;;;1.38;;
19191;SDS011;9728;48.194;16.346;2022-10-31T06:50:43;2.95;;;1.60;;
19191;SDS011;9728;48.194;16.346;2022-10-31T06:55:49;2.47;;;1.60;;
19191;SDS011;9728;48.194;16.346;2022-10-31T07:00:53;1.75;;;1.50;;
19191;SDS011;9728;48.194;16.346;2022-10-31T07:05:57;2.63;;;1.60;;
19191;SDS011;9728;48.194;16.346;2022-10-31T07:11:02;1.77;;;1.38;;
19191;SDS011;9728;48.194;16.346;2022-10-31T07:16:06;1.83;;;1.55;;
19191;SDS011;9728;48.194;16.346;2022-10-31T07:21:10;2.20;;;1.80;;
19191;SDS011;9728;48.194;16.346;2022-10-31T07:26:15;2.75;;;1.73;;
19191;SDS011;9728;48.194;16.346;2022-10-31T07:31:21;2.50;;;1.40;;
19191;SDS011;9728;48.194;16.346;2022-10-31T07:36:29;1.88;;;1.33;;
19191;SDS011;9728;48.194;16.346;2022-10-31T07:41:38;3.13;;;1.65;;
19191;SDS011;9728;48.194;16.346;2022-10-31T07:46:43;1.80;;;1.50;;
19191;SDS011;9728;48.194;16.346;2022-10-31T07:52:09;2.03;;;1.55;;
19191;SDS011;9728;48.194;16.346;2022-10-31T07:57:29;3.00;;;1.85;;
19191;SDS011;9728;48.194;16.346;2022-10-31T08:02:35;3.05;;;1.83;;
19191;SDS011;9728;48.194;16.346;2022-10-31T08:08:08;3.35;;;2.35;;
19191;SDS011;9728;48.194;16.346;2022-10-31T08:13:13;2.60;;;1.77;;
19191;SDS011;9728;48.194;16.346;2022-10-31T08:18:20;4.70;;;2.30;;
19191;SDS011;9728;48.194;16.346;2022-10-31T08:23:25;3.08;;;1.70;;
19191;SDS011;9728;48.194;16.346;2022-10-31T08:33:36;3.70;;;2.22;;
19191;SDS011;9728;48.194;16.346;2022-10-31T08:38:58;5.45;;;2.53;;
19191;SDS011;9728;48.194;16.346;2022-10-31T08:44:05;3.35;;;2.53;;
19191;SDS011;9728;48.194;16.346;2022-10-31T08:49:08;3.88;;;2.40;;
19191;SDS011;9728;48.194;16.346;2022-10-31T08:54:14;3.35;;;2.42;;
19191;SDS011;9728;48.194;16.346;2022-10-31T08:59:31;3.97;;;2.28;;
19191;SDS011;9728;48.194;16.346;2022-10-31T09:04:55;4.80;;;2.85;;
19191;SDS011;9728;48.194;16.346;2022-10-31T09:09:58;6.53;;;3.40;;
19191;SDS011;9728;48.194;16.346;2022-10-31T09:15:08;4.68;;;2.85;;
19191;SDS011;9728;48.194;16.346;2022-10-31T09:20:20;5.68;;;3.20;;
19191;SDS011;9728;48.194;16.346;2022-10-31T09:25:24;4.43;;;2.92;;
19191;SDS011;9728;48.194;16.346;2022-10-31T09:30:50;6.03;;;2.92;;
19191;SDS011;9728;48.194;16.346;2022-10-31T09:36:15;6.05;;;3.55;;
19191;SDS011;9728;48.194;16.346;2022-10-31T09:41:19;6.88;;;3.63;;
19191;SDS011;9728;48.194;16.346;2022-10-31T09:46:34;5.28;;;3.65;;
19191;SDS011;9728;48.194;16.346;2022-10-31T09:51:50;5.15;;;3.22;;
19191;SDS011;9728;48.194;16.346;2022-10-31T09:57:03;7.47;;;3.67;;
19191;SDS011;9728;48.194;16.346;2022-10-31T10:02:13;6.25;;;3.80;;
19191;SDS011;9728;48.194;16.346;2022-10-31T10:13:10;6.75;;;3.55;;
19191;SDS011;9728;48.194;16.346;2022-10-31T10:18:26;10.38;;;4.30;;
19191;SDS011;9728;48.194;16.346;2022-10-31T10:23:42;6.35;;;4.30;;
19191;SDS011;9728;48.194;16.346;2022-10-31T10:28:54;7.88;;;4.28;;
19191;SDS011;9728;48.194;16.346;2022-10-31T10:34:08;8.32;;;4.47;;
19191;SDS011;9728;48.194;16.346;2022-10-31T10:39:20;9.07;;;4.63;;
19191;SDS011;9728;48.194;16.346;2022-10-31T10:44:26;7.32;;;4.60;;
19191;SDS011;9728;48.194;16.346;2022-10-31T10:49:48;6.65;;;4.18;;
19191;SDS011;9728;48.194;16.346;2022-10-31T10:54:56;8.43;;;4.43;;
19191;SDS011;9728;48.194;16.346;2022-10-31T11:00:12;7.93;;;4.15;;
19191;SDS011;9728;48.194;16.346;2022-10-31T11:05:26;8.38;;;4.90;;
19191;SDS011;9728;48.194;16.346;2022-10-31T11:10:35;6.85;;;4.35;;
19191;SDS011;9728;48.194;16.346;2022-10-31T11:15:49;8.05;;;4.38;;
19191;SDS011;9728;48.194;16.346;2022-10-31T11:20:56;6.82;;;4.28;;
19191;SDS011;9728;48.194;16.346;2022-10-31T11:26:03;7.45;;;4.53;;
19191;SDS011;9728;48.194;16.346;2022-10-31T11:31:10;7.78;;;4.78;;
19191;SDS011;9728;48.194;16.346;2022-10-31T11:36:20;9.13;;;5.22;;
19191;SDS011;9728;48.194;16.346;2022-10-31T11:41:26;7.93;;;4.70;;
19191;SDS011;9728;48.194;16.346;2022-10-31T11:46:33;7.63;;;4.85;;
19191;SDS011;9728;48.194;16.346;2022-10-31T11:51:41;9.70;;;5.13;;
19191;SDS011;9728;48.194;16.346;2022-10-31T11:56:44;9.95;;;4.95;;
19191;SDS011;9728;48.194;16.346;2022-10-31T12:01:48;12.30;;;6.35;;
19191;SDS011;9728;48.194;16.346;2022-10-31T12:06:54;9.48;;;5.18;;
19191;SDS011;9728;48.194;16.346;2022-10-31T12:17:28;16.02;;;7.28;;
19191;SDS011;9728;48.194;16.346;2022-10-31T12:22:41;14.38;;;7.60;;
19191;SDS011;9728;48.194;16.346;2022-10-31T12:28:03;14.88;;;6.95;;
19191;SDS011;9728;48.194;16.346;2022-10-31T12:33:22;18.02;;;8.45;;
19191;SDS011;9728;48.194;16.346;2022-10-31T12:38:44;17.75;;;7.63;;
19191;SDS011;9728;48.194;16.346;2022-10-31T12:44:04;15.27;;;7.70;;
19191;SDS011;9728;48.194;16.346;2022-10-31T12:49:16;14.27;;;6.85;;
19191;SDS011;9728;48.194;16.346;2022-10-31T12:54:36;19.70;;;8.90;;
19191;SDS011;9728;48.194;16.346;2022-10-31T12:59:49;7.95;;;3.35;;
19191;SDS011;9728;48.194;16.346;2022-10-31T13:04:55;14.65;;;7.00;;
19191;SDS011;9728;48.194;16.346;2022-10-31T13:10:04;18.70;;;7.97;;
19191;SDS011;9728;48.194;16.346;2022-10-31T13:15:16;17.67;;;8.50;;
19191;SDS011;9728;48.194;16.346;2022-10-31T13:20:24;15.93;;;7.80;;
19191;SDS011;9728;48.194;16.346;2022-10-31T13:25:33;19.15;;;8.52;;
19191;SDS011;9728;48.194;16.346;2022-10-31T13:30:41;18.23;;;8.05;;
19191;SDS011;9728;48.194;16.346;2022-10-31T13:35:46;17.75;;;8.27;;
19191;SDS011;9728;48.194;16.346;2022-10-31T13:40:57;18.15;;;9.02;;
19191;SDS011;9728;48.194;16.346;2022-10-31T13:51:25;18.02;;;8.23;;
19191;SDS011;9728;48.194;16.346;2022-10-31T13:56:31;17.48;;;8.30;;
19191;SDS011;9728;48.194;16.346;2022-10-31T14:01:36;17.70;;;7.50;;
19191;SDS011;9728;48.194;16.346;2022-10-31T14:06:51;14.65;;;7.60;;
19191;SDS011;9728;48.194;16.346;2022-10-31T14:12:01;18.40;;;8.70;;
19191;SDS011;9728;48.194;16.346;2022-10-31T14:17:12;15.27;;;7.57;;
19191;SDS011;9728;48.194;16.346;2022-10-31T14:22:21;18.35;;;8.10;;
19191;SDS011;9728;48.194;16.346;2022-10-31T14:27:34;15.88;;;7.10;;
19191;SDS011;9728;48.194;16.346;2022-10-31T14:32:51;15.38;;;6.80;;
19191;SDS011;9728;48.194;16.346;2022-10-31T14:49:15;16.67;;;7.95;;
19191;SDS011;9728;48.194;16.346;2022-10-31T14:54:29;16.77;;;7.97;;
19191;SDS011;9728;48.194;16.346;2022-10-31T14:59:37;18.05;;;8.45;;
19191;SDS011;9728;48.194;16.346;2022-10-31T15:04:51;19.30;;;8.63;;
19191;SDS011;9728;48.194;16.346;2022-10-31T15:09:57;22.08;;;9.18;;
19191;SDS011;9728;48.194;16.346;2022-10-31T15:15:11;14.00;;;7.05;;
19191;SDS011;9728;48.194;16.346;2022-10-31T15:20:17;16.88;;;8.38;;
19191;SDS011;9728;48.194;16.346;2022-10-31T15:25:23;18.25;;;8.55;;
19191;SDS011;9728;48.194;16.346;2022-10-31T15:30:29;18.02;;;8.90;;
19191;SDS011;9728;48.194;16.346;2022-10-31T15:35:32;17.90;;;8.00;;
19191;SDS011;9728;48.194;16.346;2022-10-31T15:40:36;17.40;;;8.18;;
19191;SDS011;9728;48.194;16.346;2022-10-31T15:45:41;18.77;;;8.05;;
19191;SDS011;9728;48.194;16.346;2022-10-31T15:50:46;15.65;;;7.95;;
19191;SDS011;9728;48.194;16.346;2022-10-31T15:55:53;18.30;;;9.48;;
19191;SDS011;9728;48.194;16.346;2022-10-31T16:01:01;17.30;;;8.07;;
19191;SDS011;9728;48.194;16.346;2022-10-31T16:06:18;15.55;;;7.95;;
19191;SDS011;9728;48.194;16.346;2022-10-31T16:11:23;16.50;;;8.23;;
19191;SDS011;9728;48.194;16.346;2022-10-31T16:16:33;15.30;;;7.28;;
19191;SDS011;9728;48.194;16.346;2022-10-31T16:21:43;14.52;;;7.38;;
19191;SDS011;9728;48.194;16.346;2022-10-31T16:26:47;14.95;;;7.07;;
19191;SDS011;9728;48.194;16.346;2022-10-31T16:31:53;17.15;;;7.43;;
19191;SDS011;9728;48.194;16.346;2022-10-31T16:36:56;10.90;;;5.88;;
19191;SDS011;9728;48.194;16.346;2022-10-31T16:41:59;11.10;;;6.05;;
19191;SDS011;9728;48.194;16.346;2022-10-31T16:47:12;9.40;;;4.82;;
19191;SDS011;9728;48.194;16.346;2022-10-31T16:52:17;8.57;;;4.68;;
19191;SDS011;9728;48.194;16.346;2022-10-31T16:57:27;10.05;;;4.57;;
19191;SDS011;9728;48.194;16.346;2022-10-31T17:02:35;9.70;;;5.03;;
19191;SDS011;9728;48.194;16.346;2022-10-31T17:07:39;7.95;;;4.30;;
19191;SDS011;9728;48.194;16.346;2022-10-31T17:12:43;10.52;;;4.93;;
19191;SDS011;9728;48.194;16.346;2022-10-31T17:17:51;8.70;;;4.80;;
19191;SDS011;9728;48.194;16.346;2022-10-31T17:22:56;6.93;;;4.00;;
19191;SDS011;9728;48.194;16.346;2022-10-31T17:28:01;7.57;;;4.70;;
19191;SDS011;9728;48.194;16.346;2022-10-31T17:33:07;7.57;;;4.20;;
19191;SDS011;9728;48.194;16.346;2022-10-31T17:38:13;7.80;;;4.32;;
19191;SDS011;9728;48.194;16.346;2022-10-31T17:43:17;7.10;;;4.40;;
19191;SDS011;9728;48.194;16.346;2022-10-31T17:48:22;8.25;;;4.40;;
19191;SDS011;9728;48.194;16.346;2022-10-31T17:53:27;6.82;;;3.67;;
19191;SDS011;9728;48.194;16.346;2022-10-31T17:58:32;6.93;;;3.90;;
19191;SDS011;9728;48.194;16.346;2022-10-31T18:03:38;6.13;;;3.83;;
19191;SDS011;9728;48.194;16.346;2022-10-31T18:08:42;5.53;;;3.00;;
19191;SDS011;9728;48.194;16.346;2022-10-31T18:13:52;6.97;;;3.83;;
19191;SDS011;9728;48.194;16.346;2022-10-31T18:18:59;6.63;;;4.32;;
19191;SDS011;9728;48.194;16.346;2022-10-31T18:24:07;6.32;;;3.75;;
19191;SDS011;9728;48.194;16.346;2022-10-31T18:29:11;4.72;;;3.05;;
19191;SDS011;9728;48.194;16.346;2022-10-31T18:34:16;6.00;;;3.75;;
19191;SDS011;9728;48.194;16.346;2022-10-31T18:39:20;5.95;;;3.60;;
19191;SDS011;9728;48.194;16.346;2022-10-31T18:44:23;5.03;;;3.53;;
19191;SDS011;9728;48.194;16.346;2022-10-31T18:49:30;4.18;;;3.05;;
19191;SDS011;9728;48.194;16.346;2022-10-31T18:54:33;4.25;;;2.95;;
19191;SDS011;9728;48.194;16.346;2022-10-31T18:59:37;3.65;;;2.88;;
19191;SDS011;9728;48.194;16.346;2022-10-31T19:04:43;3.30;;;2.63;;
19191;SDS011;9728;48.194;16.346;2022-10-31T19:09:47;3.38;;;2.42;;
19191;SDS011;9728;48.194;16.346;2022-10-31T19:14:54;3.10;;;2.35;;
19191;SDS011;9728;48.194;16.346;2022-10-31T19:20:00;2.55;;;1.98;;
19191;SDS011;9728;48.194;16.346;2022-10-31T19:25:05;2.53;;;1.95;;
19191;SDS011;9728;48.194;16.346;2022-10-31T19:30:13;3.53;;;2.42;;
19191;SDS011;9728;48.194;16.346;2022-10-31T19:35:20;3.30;;;1.98;;
19191;SDS011;9728;48.194;16.346;2022-10-31T19:40:23;3.53;;;2.35;;
19191;SDS011;9728;48.194;16.346;2022-10-31T19:45:30;2.33;;;2.05;;
19191;SDS011;9728;48.194;16.346;2022-10-31T19:50:35;5.18;;;3.25;;
19191;SDS011;9728;48.194;16.346;2022-10-31T19:55:39;5.85;;;3.33;;
19191;SDS011;9728;48.194;16.346;2022-10-31T20:00:43;5.40;;;3.13;;
19191;SDS011;9728;48.194;16.346;2022-10-31T20:05:48;5.93;;;3.38;;
19191;SDS011;9728;48.194;16.346;2022-10-31T20:10:53;3.83;;;2.60;;
19191;SDS011;9728;48.194;16.346;2022-10-31T20:15:58;2.80;;;2.10;;
19191;SDS011;9728;48.194;16.346;2022-10-31T20:21:05;5.95;;;2.97;;
19191;SDS011;9728;48.194;16.346;2022-10-31T20:26:12;2.80;;;2.28;;
19191;SDS011;9728;48.194;16.346;2022-10-31T20:31:19;3.88;;;2.78;;
19191;SDS011;9728;48.194;16.346;2022-10-31T20:36:26;4.22;;;2.42;;
19191;SDS011;9728;48.194;16.346;2022-10-31T20:41:32;5.55;;;2.00;;
19191;SDS011;9728;48.194;16.346;2022-10-31T20:46:39;2.85;;;2.03;;
19191;SDS011;9728;48.194;16.346;2022-10-31T20:51:44;3.33;;;2.00;;
19191;SDS011;9728;48.194;16.346;2022-10-31T20:56:49;2.90;;;1.80;;
19191;SDS011;9728;48.194;16.346;2022-10-31T21:01:53;4.50;;;2.65;;
19191;SDS011;9728;48.194;16.346;2022-10-31T21:07:00;6.82;;;3.47;;
19191;SDS011;9728;48.194;16.346;2022-10-31T21:12:04;6.10;;;3.25;;
19191;SDS011;9728;48.194;16.346;2022-10-31T21:17:09;6.85;;;3.60;;
19191;SDS011;9728;48.194;16.346;2022-10-31T21:22:14;5.82;;;3.72;;
19191;SDS011;9728;48.194;16.346;2022-10-31T21:27:18;5.43;;;4.03;;
19191;SDS011;9728;48.194;16.346;2022-10-31T21:32:22;4.80;;;3.75;;
19191;SDS011;9728;48.194;16.346;2022-10-31T21:37:26;5.88;;;3.88;;
19191;SDS011;9728;48.194;16.346;2022-10-31T21:42:30;5.50;;;3.13;;
19191;SDS011;9728;48.194;16.346;2022-10-31T21:47:33;3.55;;;2.85;;
19191;SDS011;9728;48.194;16.346;2022-10-31T21:52:38;3.50;;;2.40;;
19191;SDS011;9728;48.194;16.346;2022-10-31T21:57:41;3.00;;;2.47;;
19191;SDS011;9728;48.194;16.346;2022-10-31T22:02:44;3.17;;;2.47;;
19191;SDS011;9728;48.194;16.346;2022-10-31T22:07:49;2.40;;;2.05;;
19191;SDS011;9728;48.194;16.346;2022-10-31T22:12:52;2.92;;;2.38;;
19191;SDS011;9728;48.194;16.346;2022-10-31T22:17:56;3.08;;;2.45;;
19191;SDS011;9728;48.194;16.346;2022-10-31T22:23:01;3.00;;;2.35;;
19191;SDS011;9728;48.194;16.346;2022-10-31T22:28:04;2.65;;;2.03;;
19191;SDS011;9728;48.194;16.346;2022-10-31T22:33:08;3.05;;;2.38;;
19191;SDS011;9728;48.194;16.346;2022-10-31T22:38:13;3.17;;;2.17;;
19191;SDS011;9728;48.194;16.346;2022-10-31T22:43:16;3.75;;;2.25;;
19191;SDS011;9728;48.194;16.346;2022-10-31T22:48:19;3.33;;;2.33;;
19191;SDS011;9728;48.194;16.346;2022-10-31T22:53:24;4.07;;;2.22;;
19191;SDS011;9728;48.194;16.346;2022-10-31T22:58:27;3.03;;;2.25;;
19191;SDS011;9728;48.194;16.346;2022-10-31T23:03:31;4.80;;;2.60;;
19191;SDS011;9728;48.194;16.346;2022-10-31T23:08:36;4.57;;;2.30;;
19191;SDS011;9728;48.194;16.346;2022-10-31T23:13:40;4.63;;;2.40;;
19191;SDS011;9728;48.194;16.346;2022-10-31T23:19:02;5.63;;;2.67;;
19191;SDS011;9728;48.194;16.346;2022-10-31T23:24:10;4.60;;;2.80;;
19191;SDS011;9728;48.194;16.346;2022-10-31T23:29:13;4.32;;;2.30;;
19191;SDS011;9728;48.194;16.346;2022-10-31T23:34:17;3.67;;;2.42;;
19191;SDS011;9728;48.194;16.346;2022-10-31T23:39:21;3.45;;;2.15;;
19191;SDS011;9728;48.194;16.346;2022-10-31T23:44:25;3.78;;;2.60;;
19191;SDS011;9728;48.194;16.346;2022-10-31T23:49:29;3.88;;;2.53;;
19191;SDS011;9728;48.194;16.346;2022-10-31T23:54:34;3.00;;;2.10;;
19191;SDS011;9728;48.194;16.346;2022-10-31T23:59:37;3.55;;;2.20;;
